createdAt,value
2022-09-15T00:00:19.870Z,11.75
2022-09-15T00:02:50.882Z,11.38
2022-09-15T00:05:21.861Z,12.82
2022-09-15T00:07:52.698Z,13.60
2022-09-15T00:10:23.740Z,12.75
2022-09-15T00:12:55.008Z,14.55
2022-09-15T00:15:26.375Z,14.83
2022-09-15T00:17:57.063Z,13.98
2022-09-15T00:20:27.902Z,14.75
2022-09-15T00:23:01.808Z,14.60
2022-09-15T00:25:32.458Z,13.58
2022-09-15T00:28:03.277Z,15.65
2022-09-15T00:30:34.060Z,15.30
2022-09-15T00:33:04.825Z,15.65
2022-09-15T00:35:36.849Z,16.77
2022-09-15T00:38:07.678Z,16.35
2022-09-15T00:40:40.878Z,15.65
2022-09-15T00:43:13.384Z,15.32
2022-09-15T00:45:44.610Z,16.10
2022-09-15T00:48:17.828Z,16.35
2022-09-15T00:50:54.053Z,16.27
2022-09-15T00:53:27.168Z,15.43
2022-09-15T00:55:58.665Z,15.70
2022-09-15T00:58:29.988Z,16.05
2022-09-15T01:01:01.849Z,16.17
2022-09-15T01:03:33.883Z,14.98
2022-09-15T01:06:05.486Z,15.00
2022-09-15T01:08:36.860Z,14.70
2022-09-15T01:11:07.233Z,14.85
2022-09-15T01:13:37.608Z,15.50
2022-09-15T01:16:09.025Z,15.20
2022-09-15T01:18:40.375Z,14.73
2022-09-15T01:21:11.616Z,14.23
2022-09-15T01:23:43.393Z,16.07
2022-09-15T01:26:14.859Z,15.75
2022-09-15T01:28:46.509Z,14.75
2022-09-15T01:31:18.346Z,14.25
2022-09-15T01:33:49.948Z,14.03
2022-09-15T01:36:21.283Z,12.95
2022-09-15T01:38:52.773Z,12.68
2022-09-15T01:41:22.578Z,12.75
2022-09-15T01:43:53.848Z,13.95
2022-09-15T01:46:25.268Z,13.45
2022-09-15T01:48:56.554Z,14.28
2022-09-15T01:51:27.945Z,14.13
2022-09-15T01:53:59.130Z,13.40
2022-09-15T01:56:29.239Z,14.73
2022-09-15T01:58:59.652Z,13.65
2022-09-15T02:01:32.419Z,14.30
2022-09-15T02:04:04.156Z,13.18
2022-09-15T02:06:36.899Z,13.85
2022-09-15T02:09:08.128Z,13.28
2022-09-15T02:11:38.898Z,13.25
2022-09-15T02:14:11.562Z,12.88
2022-09-15T02:16:42.976Z,13.72
2022-09-15T02:19:14.806Z,12.73
2022-09-15T02:21:46.155Z,12.80
2022-09-15T02:24:18.222Z,12.35
2022-09-15T02:26:52.843Z,12.00
2022-09-15T02:29:23.683Z,12.75
2022-09-15T02:31:55.306Z,11.93
2022-09-15T02:34:27.039Z,12.30
2022-09-15T02:36:57.532Z,13.58
2022-09-15T02:39:28.948Z,13.00
2022-09-15T02:42:00.500Z,12.35
2022-09-15T02:44:32.744Z,12.03
2022-09-15T02:47:03.452Z,12.13
2022-09-15T02:49:33.596Z,12.28
2022-09-15T02:52:03.771Z,12.55
2022-09-15T02:54:36.106Z,11.93
2022-09-15T02:57:08.741Z,12.88
2022-09-15T02:59:40.085Z,13.25
2022-09-15T03:02:11.544Z,11.57
2022-09-15T03:04:41.709Z,12.23
2022-09-15T03:07:11.878Z,12.85
2022-09-15T03:09:41.901Z,12.47
2022-09-15T03:12:12.288Z,11.70
2022-09-15T03:14:42.837Z,13.05
2022-09-15T03:17:12.984Z,12.78
2022-09-15T03:19:43.088Z,13.13
2022-09-15T03:22:13.361Z,11.20
2022-09-15T03:24:43.572Z,11.45
2022-09-15T03:27:13.629Z,11.73
2022-09-15T03:29:43.945Z,12.70
2022-09-15T03:32:14.453Z,10.72
2022-09-15T03:34:44.435Z,11.30
2022-09-15T03:37:14.674Z,10.50
2022-09-15T03:39:48.995Z,10.45
2022-09-15T03:42:25.966Z,11.28
2022-09-15T03:44:59.006Z,10.20
2022-09-15T03:47:29.311Z,9.88
2022-09-15T03:50:01.350Z,10.53
2022-09-15T03:52:33.233Z,10.13
2022-09-15T03:55:03.323Z,10.95
2022-09-15T03:57:33.592Z,9.73
2022-09-15T04:00:04.132Z,9.13
2022-09-15T04:02:34.134Z,9.08
2022-09-15T04:05:04.355Z,9.08
2022-09-15T04:07:34.576Z,9.10
2022-09-15T04:10:05.645Z,8.43
2022-09-15T04:12:36.120Z,9.40
2022-09-15T04:15:09.594Z,8.73
2022-09-15T04:17:39.806Z,8.88
2022-09-15T04:20:10.427Z,8.70
2022-09-15T04:22:40.956Z,9.23
2022-09-15T04:25:11.264Z,9.38
2022-09-15T04:27:41.329Z,9.88
2022-09-15T04:30:12.268Z,10.10
2022-09-15T04:32:42.690Z,9.85
2022-09-15T04:35:13.378Z,9.60
2022-09-15T04:37:43.864Z,10.10
2022-09-15T04:40:14.230Z,9.23
2022-09-15T04:42:44.708Z,10.55
2022-09-15T04:45:17.547Z,10.45
2022-09-15T04:47:49.025Z,9.95
2022-09-15T04:50:21.061Z,8.90
2022-09-15T04:52:50.688Z,9.50
2022-09-15T04:55:21.046Z,9.18
2022-09-15T04:57:51.539Z,9.08
2022-09-15T05:00:21.616Z,9.23
2022-09-15T05:02:51.680Z,9.63
2022-09-15T05:05:22.033Z,8.50
2022-09-15T05:07:52.110Z,8.83
2022-09-15T05:10:22.294Z,9.10
2022-09-15T05:12:52.488Z,8.95
2022-09-15T05:15:22.772Z,8.73
2022-09-15T05:17:53.240Z,8.45
2022-09-15T05:20:23.726Z,8.25
2022-09-15T05:22:53.713Z,9.00
2022-09-15T05:25:46.311Z,8.38
2022-09-15T05:31:06.193Z,7.92
2022-09-15T05:33:37.122Z,8.10
2022-09-15T05:36:10.461Z,7.30
2022-09-15T05:38:40.593Z,7.62
2022-09-15T05:41:12.222Z,7.00
2022-09-15T05:43:42.504Z,7.78
2022-09-15T05:46:13.402Z,8.35
2022-09-15T05:48:43.517Z,7.92
2022-09-15T05:51:13.714Z,8.65
2022-09-15T05:53:43.716Z,7.62
2022-09-15T05:56:14.710Z,7.17
2022-09-15T05:58:45.904Z,7.40
2022-09-15T06:01:17.252Z,8.23
2022-09-15T06:06:27.066Z,8.25
2022-09-15T06:08:59.451Z,8.23
2022-09-15T06:11:31.282Z,8.55
2022-09-15T06:14:03.896Z,7.42
2022-09-15T06:16:39.095Z,7.50
2022-09-15T06:19:09.861Z,7.92
2022-09-15T06:21:39.840Z,7.87
2022-09-15T06:24:10.036Z,7.92
2022-09-15T06:26:40.503Z,8.13
2022-09-15T06:29:12.257Z,7.80
2022-09-15T06:31:42.655Z,8.15
2022-09-15T06:34:13.185Z,8.33
2022-09-15T06:36:43.198Z,8.20
2022-09-15T06:39:13.289Z,8.18
2022-09-15T06:42:01.165Z,8.20
2022-09-15T06:44:14.701Z,7.30
2022-09-15T06:46:44.710Z,6.92
2022-09-15T06:49:15.438Z,6.47
2022-09-15T06:51:45.588Z,6.80
2022-09-15T06:54:17.224Z,7.35
2022-09-15T06:56:47.936Z,7.22
2022-09-15T06:59:18.978Z,6.83
2022-09-15T07:01:49.078Z,6.65
2022-09-15T07:04:19.489Z,7.28
2022-09-15T07:06:50.104Z,7.20
2022-09-15T07:09:20.665Z,8.45
2022-09-15T07:11:50.669Z,7.10
2022-09-15T07:14:20.673Z,7.92
2022-09-15T07:16:51.151Z,7.45
2022-09-15T07:19:21.588Z,8.25
2022-09-15T07:21:52.952Z,8.30
2022-09-15T07:24:23.017Z,8.45
2022-09-15T07:26:53.663Z,8.15
2022-09-15T07:29:23.942Z,8.05
2022-09-15T07:31:54.213Z,8.65
2022-09-15T07:34:24.896Z,8.18
2022-09-15T07:36:55.526Z,8.30
2022-09-15T07:39:27.229Z,8.73
2022-09-15T07:41:57.289Z,8.43
2022-09-15T07:44:27.838Z,8.68
2022-09-15T07:46:57.921Z,8.55
2022-09-15T07:49:27.904Z,8.25
2022-09-15T07:51:58.290Z,8.65
2022-09-15T07:54:29.177Z,9.03
2022-09-15T07:56:59.350Z,8.90
2022-09-15T07:59:29.787Z,9.15
2022-09-15T08:01:59.992Z,9.38
2022-09-15T08:04:30.257Z,9.08
2022-09-15T08:07:00.675Z,6.95
2022-09-15T08:09:31.674Z,6.22
2022-09-15T08:12:02.014Z,6.50
2022-09-15T08:14:33.696Z,7.87
2022-09-15T08:17:09.403Z,7.00
2022-09-15T08:19:37.815Z,6.10
2022-09-15T08:22:08.372Z,6.08
2022-09-15T08:24:39.065Z,6.55
2022-09-15T08:27:10.516Z,7.33
2022-09-15T08:29:40.789Z,6.95
2022-09-15T08:32:11.011Z,6.17
2022-09-15T08:34:41.277Z,6.67
2022-09-15T08:37:11.614Z,7.80
2022-09-15T08:39:42.618Z,7.58
2022-09-15T08:42:14.002Z,8.20
2022-09-15T08:44:45.915Z,8.45
2022-09-15T08:47:17.437Z,9.08
2022-09-15T08:49:51.951Z,8.83
2022-09-15T08:52:22.068Z,9.28
2022-09-15T08:54:53.575Z,9.28
2022-09-15T08:57:25.393Z,9.80
2022-09-15T08:59:57.144Z,10.38
2022-09-15T09:02:28.435Z,9.20
2022-09-15T09:05:01.225Z,9.38
2022-09-15T09:07:32.670Z,9.10
2022-09-15T09:10:04.673Z,9.60
2022-09-15T09:12:36.434Z,12.47
2022-09-15T09:15:08.191Z,9.60
2022-09-15T09:17:40.070Z,9.53
2022-09-15T09:20:11.604Z,8.43
2022-09-15T09:22:43.260Z,9.28
2022-09-15T09:25:26.684Z,8.85
2022-09-15T09:27:47.454Z,8.70
2022-09-15T09:30:19.410Z,9.23
2022-09-15T09:32:52.921Z,8.38
2022-09-15T09:35:24.908Z,8.68
2022-09-15T09:37:55.933Z,7.75
2022-09-15T09:40:26.064Z,7.60
2022-09-15T09:42:56.247Z,7.25
2022-09-15T09:45:26.431Z,7.85
2022-09-15T09:48:01.639Z,7.42
2022-09-15T09:50:31.513Z,7.97
2022-09-15T09:53:01.891Z,8.05
2022-09-15T09:55:32.642Z,8.50
2022-09-15T09:58:04.094Z,7.87
2022-09-15T10:00:34.543Z,7.35
2022-09-15T10:03:23.817Z,8.38
2022-09-15T10:05:55.442Z,8.50
2022-09-15T10:08:26.088Z,8.18
2022-09-15T10:10:57.217Z,7.70
2022-09-15T10:13:27.419Z,8.45
2022-09-15T10:15:58.989Z,8.70
2022-09-15T10:18:30.719Z,9.73
2022-09-15T10:21:01.754Z,9.70
2022-09-15T10:23:33.060Z,9.73
2022-09-15T10:26:04.798Z,9.85
2022-09-15T10:28:35.064Z,8.95
2022-09-15T10:31:06.882Z,9.00
2022-09-15T10:33:39.626Z,8.83
2022-09-15T10:36:11.223Z,9.30
2022-09-15T10:38:44.521Z,9.43
2022-09-15T10:41:15.817Z,9.20
2022-09-15T10:43:47.065Z,8.68
2022-09-15T10:46:18.567Z,9.40
2022-09-15T10:48:48.881Z,8.85
2022-09-15T10:51:20.665Z,9.03
2022-09-15T10:53:56.730Z,9.88
2022-09-15T10:56:25.829Z,9.50
2022-09-15T10:59:00.328Z,9.85
2022-09-15T11:01:30.821Z,10.13
2022-09-15T11:04:03.155Z,9.78
2022-09-15T11:06:34.619Z,9.25
2022-09-15T11:09:06.429Z,10.35
2022-09-15T11:11:38.112Z,9.90
2022-09-15T11:14:09.478Z,9.75
2022-09-15T11:16:42.214Z,9.30
2022-09-15T11:19:13.603Z,9.35
2022-09-15T11:21:47.908Z,10.68
2022-09-15T11:24:19.187Z,10.45
2022-09-15T11:26:50.424Z,10.05
2022-09-15T11:29:21.794Z,10.00
2022-09-15T11:31:53.254Z,10.48
2022-09-15T11:34:25.143Z,9.83
2022-09-15T11:36:56.433Z,10.85
2022-09-15T11:39:29.883Z,10.50
2022-09-15T11:42:02.575Z,9.85
2022-09-15T11:44:35.070Z,10.43
2022-09-15T11:47:05.532Z,10.80
2022-09-15T11:49:35.312Z,10.88
2022-09-15T11:52:06.831Z,11.10
2022-09-15T11:54:38.619Z,11.57
2022-09-15T11:57:10.079Z,11.30
2022-09-15T11:59:41.326Z,12.18
2022-09-15T12:02:14.117Z,11.60
2022-09-15T12:04:46.974Z,10.45
2022-09-15T12:07:18.214Z,11.57
2022-09-15T12:09:49.308Z,11.00
2022-09-15T12:12:24.110Z,10.48
2022-09-15T12:14:55.241Z,11.95
2022-09-15T12:17:28.036Z,11.40
2022-09-15T12:20:00.782Z,10.82
2022-09-15T12:22:35.356Z,12.30
2022-09-15T12:25:08.103Z,12.30
2022-09-15T12:27:38.213Z,12.70
2022-09-15T12:30:08.681Z,13.62
2022-09-15T12:32:42.529Z,13.70
2022-09-15T12:35:13.851Z,14.20
2022-09-15T12:37:44.129Z,13.65
2022-09-15T12:40:15.815Z,14.13
2022-09-15T12:42:47.610Z,12.78
2022-09-15T12:45:19.490Z,13.50
2022-09-15T12:47:50.893Z,13.68
2022-09-15T12:50:21.134Z,13.13
2022-09-15T12:52:55.252Z,13.60
2022-09-15T12:55:26.623Z,14.40
2022-09-15T12:57:58.146Z,14.60
2022-09-15T13:00:29.893Z,14.78
2022-09-15T13:03:02.173Z,14.60
2022-09-15T13:05:33.422Z,14.63
2022-09-15T13:08:03.886Z,13.83
2022-09-15T13:10:35.267Z,13.18
2022-09-15T13:13:06.785Z,12.73
2022-09-15T13:15:38.583Z,12.63
2022-09-15T13:18:09.043Z,13.10
2022-09-15T13:20:42.960Z,12.75
2022-09-15T13:23:14.433Z,13.18
2022-09-15T13:25:46.116Z,13.15
2022-09-15T13:28:17.698Z,60.03
2022-09-15T13:30:49.147Z,16.97
2022-09-15T13:33:22.449Z,12.07
2022-09-15T13:35:53.471Z,12.00
2022-09-15T13:38:30.906Z,12.00
2022-09-15T13:40:58.837Z,12.37
2022-09-15T13:43:29.615Z,11.28
2022-09-15T13:46:02.333Z,12.15
2022-09-15T13:48:36.747Z,12.53
2022-09-15T13:51:08.154Z,11.93
2022-09-15T13:53:40.938Z,11.75
2022-09-15T13:56:12.701Z,12.73
2022-09-15T13:59:04.367Z,11.90
2022-09-15T14:01:16.415Z,11.48
2022-09-15T14:03:47.970Z,12.00
2022-09-15T14:06:22.731Z,11.55
2022-09-15T14:08:56.568Z,11.08
2022-09-15T14:11:28.441Z,11.25
2022-09-15T14:14:00.439Z,11.30
2022-09-15T14:16:35.279Z,11.90
2022-09-15T14:19:06.126Z,12.28
2022-09-15T14:21:36.303Z,12.47
2022-09-15T14:24:08.119Z,11.75
2022-09-15T14:26:38.425Z,11.65
2022-09-15T14:29:12.648Z,12.35
2022-09-15T14:31:43.269Z,12.63
2022-09-15T14:34:18.178Z,12.23
2022-09-15T14:36:47.029Z,12.03
2022-09-15T14:39:19.063Z,12.70
2022-09-15T14:41:50.272Z,12.23
2022-09-15T14:46:54.498Z,13.95
2022-09-15T14:49:28.764Z,13.10
2022-09-15T14:51:58.791Z,13.35
2022-09-15T14:54:31.641Z,13.72
2022-09-15T14:57:17.368Z,13.85
2022-09-15T14:59:35.800Z,13.60
2022-09-15T15:02:07.899Z,14.93
2022-09-15T15:04:39.253Z,15.00
2022-09-15T15:07:26.311Z,13.72
2022-09-15T15:10:00.869Z,14.80
2022-09-15T15:12:32.162Z,13.60
2022-09-15T15:15:02.825Z,14.98
2022-09-15T15:17:34.176Z,14.70
2022-09-15T15:20:06.590Z,13.35
2022-09-15T15:22:36.184Z,13.72
2022-09-15T15:25:07.474Z,14.10
2022-09-15T15:27:40.218Z,13.85
2022-09-15T15:30:11.636Z,14.23
2022-09-15T15:32:44.294Z,13.53
2022-09-15T15:35:16.219Z,14.18
2022-09-15T15:37:46.724Z,13.85
2022-09-15T15:40:18.558Z,12.80
2022-09-15T15:42:49.925Z,8.53
2022-09-15T15:45:21.439Z,5.67
2022-09-15T15:47:51.675Z,3.92
2022-09-15T15:50:25.411Z,4.20
2022-09-15T15:52:55.312Z,4.85
2022-09-15T15:55:27.867Z,2.70
2022-09-15T15:57:57.944Z,2.52
2022-09-15T16:00:30.060Z,2.50
2022-09-15T16:03:00.193Z,2.75
2022-09-15T16:05:30.958Z,2.02
2022-09-15T16:08:02.275Z,2.58
2022-09-15T16:10:33.728Z,1.98
2022-09-15T16:13:06.833Z,1.82
2022-09-15T16:15:36.952Z,1.80
2022-09-15T16:18:07.057Z,1.70
2022-09-15T16:20:37.385Z,1.90
2022-09-15T16:23:07.704Z,1.72
2022-09-15T16:25:37.546Z,1.70
2022-09-15T16:28:07.753Z,2.00
2022-09-15T16:30:37.820Z,1.98
2022-09-15T16:33:08.007Z,2.20
2022-09-15T16:35:40.659Z,2.00
2022-09-15T16:38:13.918Z,2.10
2022-09-15T16:40:43.973Z,1.87
2022-09-15T16:43:15.313Z,2.15
2022-09-15T16:45:46.598Z,1.80
2022-09-15T16:48:17.101Z,2.60
2022-09-15T16:51:16.133Z,2.30
2022-09-15T16:53:20.718Z,2.12
2022-09-15T16:55:52.038Z,2.87
2022-09-15T16:58:25.144Z,2.80
2022-09-15T17:00:55.615Z,2.20
2022-09-15T17:03:27.232Z,2.37
2022-09-15T17:05:58.759Z,2.65
2022-09-15T17:08:30.520Z,2.50
2022-09-15T17:11:01.602Z,2.50
2022-09-15T17:13:33.142Z,2.80
2022-09-15T17:16:04.886Z,2.58
2022-09-15T17:18:34.994Z,2.83
2022-09-15T17:21:05.145Z,2.67
2022-09-15T17:23:36.523Z,2.80
2022-09-15T17:26:07.781Z,2.85
2022-09-15T17:28:39.099Z,2.87
2022-09-15T17:31:11.071Z,2.58
2022-09-15T17:33:41.268Z,2.62
2022-09-15T17:36:11.395Z,2.77
2022-09-15T17:38:42.345Z,2.67
2022-09-15T17:41:13.792Z,3.00
2022-09-15T17:43:43.911Z,2.98
2022-09-15T17:46:14.101Z,2.92
2022-09-15T17:48:44.238Z,3.05
2022-09-15T17:51:15.479Z,2.70
2022-09-15T17:53:53.447Z,3.08
2022-09-15T17:56:23.743Z,2.90
2022-09-15T17:58:53.911Z,2.80
2022-09-15T18:01:24.156Z,2.95
2022-09-15T18:03:54.182Z,3.20
2022-09-15T18:06:24.195Z,2.83
2022-09-15T18:08:54.511Z,2.55
2022-09-15T18:11:24.620Z,2.90
2022-09-15T18:13:54.657Z,2.83
2022-09-15T18:16:24.983Z,2.65
2022-09-15T18:18:54.981Z,3.27
2022-09-15T18:21:26.859Z,2.40
2022-09-15T18:23:57.569Z,2.70
2022-09-15T18:26:27.897Z,3.05
2022-09-15T18:28:58.220Z,2.83
2022-09-15T18:31:28.339Z,2.60
2022-09-15T18:33:58.696Z,2.80
2022-09-15T18:36:28.809Z,2.65
2022-09-15T18:38:59.184Z,2.58
2022-09-15T18:41:29.429Z,2.92
2022-09-15T18:43:59.579Z,3.00
2022-09-15T18:46:29.569Z,3.08
2022-09-15T18:49:00.389Z,2.72
2022-09-15T18:51:50.397Z,2.95
2022-09-15T18:54:02.488Z,3.05
2022-09-15T18:56:32.803Z,2.80
2022-09-15T18:59:03.062Z,3.17
2022-09-15T19:01:33.222Z,4.10
2022-09-15T19:04:03.871Z,4.40
2022-09-15T19:06:33.884Z,4.37
2022-09-15T19:09:06.716Z,4.85
2022-09-15T19:11:36.857Z,4.97
2022-09-15T19:14:06.854Z,4.72
2022-09-15T19:16:56.422Z,4.80
2022-09-15T19:19:08.409Z,4.78
2022-09-15T19:21:38.524Z,5.17
2022-09-15T19:24:08.594Z,5.30
2022-09-15T19:26:38.700Z,5.75
2022-09-15T19:32:24.435Z,5.12
2022-09-15T19:37:23.808Z,6.30
2022-09-15T19:39:54.011Z,6.42
2022-09-15T19:42:24.175Z,6.25
2022-09-15T19:44:55.351Z,6.87
2022-09-15T19:47:25.557Z,7.58
2022-09-15T19:49:56.265Z,6.85
2022-09-15T19:55:14.772Z,6.47
2022-09-15T19:57:44.912Z,6.55
2022-09-15T20:00:16.143Z,6.75
2022-09-15T20:02:47.460Z,6.35
2022-09-15T20:05:17.661Z,6.05
2022-09-15T20:07:49.284Z,4.97
2022-09-15T20:10:19.444Z,4.30
2022-09-15T20:12:49.645Z,4.20
2022-09-15T20:15:20.028Z,3.37
2022-09-15T20:17:50.146Z,2.72
2022-09-15T20:20:20.223Z,2.55
2022-09-15T20:22:50.439Z,1.90
2022-09-15T20:25:21.176Z,1.98
2022-09-15T20:27:52.697Z,2.22
2022-09-15T20:30:23.240Z,2.33
2022-09-15T20:32:53.475Z,2.80
2022-09-15T20:35:23.505Z,3.35
2022-09-15T20:37:54.150Z,2.75
2022-09-15T20:40:24.447Z,3.55
2022-09-15T20:42:54.722Z,2.65
2022-09-15T20:45:25.325Z,2.67
2022-09-15T20:47:55.632Z,3.10
2022-09-15T20:50:26.983Z,3.00
2022-09-15T20:52:57.005Z,3.12
2022-09-15T20:55:27.040Z,3.65
2022-09-15T20:57:57.025Z,4.25
2022-09-15T21:00:30.658Z,5.08
2022-09-15T21:02:58.911Z,4.90
2022-09-15T21:05:29.340Z,5.35
2022-09-15T21:07:59.399Z,5.87
2022-09-15T21:10:29.481Z,6.47
2022-09-15T21:12:59.809Z,7.67
2022-09-15T21:15:30.048Z,8.23
2022-09-15T21:18:00.144Z,7.92
2022-09-15T21:20:30.798Z,7.58
2022-09-15T21:23:01.033Z,8.70
2022-09-15T21:25:31.320Z,8.13
2022-09-15T21:28:01.544Z,8.85
2022-09-15T21:30:31.767Z,8.78
2022-09-15T21:33:02.401Z,9.03
2022-09-15T21:35:33.808Z,8.83
2022-09-15T21:38:03.851Z,9.10
2022-09-15T21:40:34.234Z,9.78
2022-09-15T21:43:04.506Z,9.73
2022-09-15T21:45:34.566Z,8.65
2022-09-15T21:48:05.225Z,10.13
2022-09-15T21:50:35.510Z,8.75
2022-09-15T21:53:05.917Z,10.25
2022-09-15T21:55:37.266Z,10.13
2022-09-15T21:58:07.390Z,9.30
2022-09-15T22:00:40.433Z,9.88
2022-09-15T22:03:12.013Z,10.35
2022-09-15T22:05:43.486Z,9.80
2022-09-15T22:08:14.563Z,10.53
2022-09-15T22:10:45.881Z,10.75
2022-09-15T22:13:16.194Z,9.73
2022-09-15T22:15:46.765Z,9.43
2022-09-15T22:18:17.050Z,9.73
2022-09-15T22:20:47.108Z,10.80
2022-09-15T22:23:18.428Z,9.78
2022-09-15T22:25:48.478Z,10.35
2022-09-15T22:28:18.527Z,9.53
2022-09-15T22:30:48.879Z,10.13
2022-09-15T22:33:18.900Z,9.45
2022-09-15T22:35:49.526Z,10.03
2022-09-15T22:38:19.811Z,9.63
2022-09-15T22:40:49.872Z,9.85
2022-09-15T22:43:19.991Z,9.93
2022-09-15T22:45:50.163Z,10.05
2022-09-15T22:48:20.469Z,9.83
2022-09-15T22:50:50.553Z,9.85
2022-09-15T22:53:20.578Z,10.00
2022-09-15T22:55:50.796Z,10.43
2022-09-15T22:58:21.629Z,10.00
2022-09-15T23:00:52.101Z,10.38
2022-09-15T23:03:22.285Z,10.58
2022-09-15T23:05:53.636Z,9.70
2022-09-15T23:08:23.753Z,9.80
2022-09-15T23:10:54.008Z,10.00
2022-09-15T23:13:24.339Z,10.13
2022-09-15T23:15:54.564Z,9.13
2022-09-15T23:18:24.741Z,8.53
2022-09-15T23:20:56.188Z,9.20
2022-09-15T23:23:26.414Z,9.15
2022-09-15T23:25:56.783Z,8.08
2022-09-15T23:28:27.054Z,8.15
2022-09-15T23:30:58.486Z,8.48
2022-09-15T23:33:29.603Z,9.30
2022-09-15T23:36:01.107Z,8.30
2022-09-15T23:38:31.227Z,9.05
2022-09-15T23:41:01.288Z,8.45
2022-09-15T23:43:31.392Z,8.18
2022-09-15T23:46:02.314Z,8.88
2022-09-15T23:48:33.898Z,8.85
2022-09-15T23:51:04.528Z,9.60
2022-09-15T23:53:35.045Z,8.85
2022-09-15T23:56:05.341Z,9.15
2022-09-15T23:58:35.383Z,9.25
